Arundel, Maine
Current Conditions -  °F | °C
As of 1:15 PM on Thursday 18 Dec 2014 (Local Time) from KSFM Reporting Station
Broken Clouds Broken Clouds  
Wind Chill: 32°   Ceiling: 4800
Heat Index: 41°   Visibility: 10mi
Dew Point: 27°   Wind: 17mph
Humidity: 57%   Direction: 290°WNW
Pressure: 29.7"   Gusts: 26mph
Location:  43.4079°N, 70.4735°W
Report Text: KSFM 181815Z AUTO 29015G23KT 10SM FEW035 SCT042 BKN048 05/M03 A2970 RMK AO1
Loading
Personal Weather Stations






























Interactive Weather Map New forecast layout! Learn more

10-Day Weather Forecast

Advertisements
Track Severe Weather on mobile